Terminal Aerodrome Forecast
Issued by NWS Portland, OR

Home | Current Version | Previous Version | Text Only | Print | Product List | Glossary On
Versions: 1 2 3 4 5 6 7 8 9 10 11 12 13 14 15 16 17 18 19 20 21 22 23 24 25 26 27 28 29 30 31 32
000
FTUS46 KPQR 202341
TAFEUG
TAF
KEUG 202341Z 2100/2124 18014G22KT 5SM -RA BR SCT025 OVC050
      TEMPO 2100/2104 BKN025
     FM210700 21012KT 5SM -RADZ BR BKN015 OVC035=

USA.gov is the U.S. government's official web portal to all federal, state and local government web resources and services.